createdAt,value
2022-09-05T00:00:13.334Z,15.98
2022-09-05T00:00:49.479Z,17.02
2022-09-05T00:01:32.004Z,16.85
2022-09-05T00:02:07.635Z,20.05
2022-09-05T00:02:48.854Z,20.17
2022-09-05T00:03:44.956Z,16.63
2022-09-05T00:04:28.326Z,19.23
2022-09-05T00:05:15.929Z,22.38
2022-09-05T00:06:02.696Z,21.88
2022-09-05T00:06:39.734Z,20.55
2022-09-05T00:07:34.369Z,20.35
2022-09-05T00:08:23.140Z,22.50
2022-09-05T00:08:58.155Z,23.58
2022-09-05T00:09:49.046Z,24.67
2022-09-05T00:10:27.347Z,19.70
2022-09-05T00:11:40.710Z,22.48
2022-09-05T00:12:16.240Z,22.65
2022-09-05T00:12:49.032Z,22.15
2022-09-05T00:13:31.554Z,21.83
2022-09-05T00:14:06.742Z,30.02
2022-09-05T00:15:18.450Z,21.40
2022-09-05T00:16:08.402Z,21.02
2022-09-05T00:16:40.760Z,20.65
2022-09-05T00:17:13.052Z,22.00
2022-09-05T00:20:49.666Z,21.58
2022-09-05T00:24:08.915Z,19.23
2022-09-05T00:24:17.755Z,17.83
2022-09-05T00:24:19.136Z,20.02
2022-09-05T00:24:21.282Z,19.33
2022-09-05T00:24:25.896Z,22.02
2022-09-05T00:24:33.984Z,19.23
2022-09-05T00:25:20.959Z,14.38
2022-09-05T00:25:59.561Z,19.52
2022-09-05T00:26:49.950Z,20.52
2022-09-05T00:27:41.308Z,20.27
2022-09-05T00:28:27.142Z,18.73
2022-09-05T00:29:14.971Z,27.80
2022-09-05T00:30:26.922Z,20.65
2022-09-05T00:31:55.021Z,25.23
2022-09-05T00:32:03.372Z,25.65
2022-09-05T00:32:41.173Z,22.58
2022-09-05T00:33:17.065Z,23.48
2022-09-05T00:34:14.041Z,23.80
2022-09-05T00:34:49.076Z,23.27
2022-09-05T00:35:28.743Z,24.98
2022-09-05T00:36:12.723Z,25.83
2022-09-05T00:36:49.516Z,23.50
2022-09-05T00:37:33.490Z,31.10
2022-09-05T00:38:16.751Z,21.65
2022-09-05T00:38:55.695Z,20.85
2022-09-05T00:39:47.949Z,22.95
2022-09-05T00:40:47.129Z,20.90
2022-09-05T00:41:19.736Z,25.20
2022-09-05T00:41:54.236Z,22.55
2022-09-05T00:42:26.635Z,18.70
2022-09-05T00:43:01.956Z,18.85
2022-09-05T00:43:37.120Z,26.52
2022-09-05T00:44:11.277Z,25.00
2022-09-05T00:44:55.467Z,26.38
2022-09-05T00:45:48.336Z,20.30
2022-09-05T00:46:25.675Z,21.55
2022-09-05T00:47:09.745Z,21.52
2022-09-05T00:47:50.298Z,23.42
2022-09-05T00:48:25.763Z,24.20
2022-09-05T00:49:10.190Z,20.35
2022-09-05T00:49:42.514Z,18.70
2022-09-05T00:50:22.592Z,19.50
2022-09-05T00:51:37.694Z,18.67
2022-09-05T00:52:13.463Z,18.48
2022-09-05T00:53:07.341Z,17.02
2022-09-05T00:53:43.036Z,18.05
2022-09-05T00:54:18.620Z,17.80
2022-09-05T00:55:02.497Z,21.92
2022-09-05T00:55:52.961Z,21.38
2022-09-05T00:56:49.959Z,20.35
2022-09-05T00:57:36.029Z,26.65
2022-09-05T00:58:17.349Z,20.15
2022-09-05T00:59:25.200Z,19.65
2022-09-05T01:00:17.022Z,19.63
2022-09-05T01:00:56.485Z,19.02
2022-09-05T01:01:37.530Z,19.73
2022-09-05T01:02:09.985Z,21.02
2022-09-05T01:02:51.991Z,25.55
2022-09-05T01:03:34.049Z,18.83
2022-09-05T01:04:24.793Z,18.17
2022-09-05T01:05:16.699Z,18.33
2022-09-05T01:05:50.107Z,22.42
2022-09-05T01:06:25.635Z,16.65
2022-09-05T01:07:19.085Z,22.98
2022-09-05T01:07:54.321Z,27.73
2022-09-05T01:09:07.942Z,22.02
2022-09-05T01:09:47.172Z,24.02
2022-09-05T01:10:23.566Z,23.55
2022-09-05T01:11:02.065Z,20.48
2022-09-05T01:11:37.469Z,20.50
2022-09-05T01:12:28.800Z,22.67
2022-09-05T01:13:19.409Z,26.02
2022-09-05T01:13:52.026Z,25.17
2022-09-05T01:14:36.044Z,22.98
2022-09-05T01:15:32.143Z,24.65
2022-09-05T01:16:07.893Z,25.95
2022-09-05T01:16:58.948Z,24.42
2022-09-05T01:17:31.418Z,33.75
2022-09-05T01:18:12.848Z,28.10
2022-09-05T01:18:47.608Z,25.48
2022-09-05T01:19:26.035Z,25.27
2022-09-05T01:20:19.640Z,25.40
2022-09-05T01:21:00.324Z,28.10
2022-09-05T01:22:23.322Z,31.55
2022-09-05T01:23:01.515Z,25.98
2022-09-05T01:23:50.249Z,31.77
2022-09-05T01:24:31.702Z,25.17
2022-09-05T01:25:03.986Z,22.58
2022-09-05T01:25:55.122Z,27.02
2022-09-05T01:26:40.448Z,23.17
2022-09-05T01:27:18.758Z,30.88
2022-09-05T01:29:01.287Z,27.73
2022-09-05T01:29:18.667Z,26.42
2022-09-05T01:29:51.996Z,26.85
2022-09-05T01:30:31.863Z,25.95
2022-09-05T01:31:05.705Z,25.90
2022-09-05T01:31:43.102Z,25.30
2022-09-05T01:32:35.521Z,28.13
2022-09-05T01:33:14.800Z,21.40
2022-09-05T01:33:54.676Z,31.13
2022-09-05T01:34:31.306Z,26.70
2022-09-05T01:35:23.011Z,27.35
2022-09-05T01:36:03.480Z,25.80
2022-09-05T01:36:54.756Z,22.40
2022-09-05T01:37:37.705Z,30.05
2022-09-05T01:38:24.144Z,25.33
2022-09-05T01:40:12.034Z,32.92
2022-09-05T01:40:26.038Z,29.50
2022-09-05T01:41:19.128Z,31.88
2022-09-05T01:41:58.867Z,29.10
2022-09-05T01:42:37.190Z,30.08
2022-09-05T01:43:18.498Z,30.60
2022-09-05T01:44:10.669Z,30.33
2022-09-05T01:44:51.822Z,32.35
2022-09-05T01:45:39.849Z,35.60
2022-09-05T01:46:28.453Z,35.90
2022-09-05T01:47:16.041Z,30.80
2022-09-05T01:48:06.135Z,30.40
2022-09-05T01:48:38.935Z,31.67
2022-09-05T01:49:19.390Z,28.88
2022-09-05T01:49:55.083Z,33.75
2022-09-05T01:50:33.356Z,33.80
2022-09-05T01:51:29.110Z,30.65
2022-09-05T01:52:21.492Z,31.17
2022-09-05T01:53:01.532Z,32.22
2022-09-05T01:53:42.027Z,28.65
2022-09-05T01:54:24.465Z,33.58
2022-09-05T01:55:00.279Z,30.90
2022-09-05T01:56:04.400Z,31.35
2022-09-05T01:57:16.122Z,31.45
2022-09-05T01:57:54.796Z,31.98
2022-09-05T01:58:36.242Z,34.88
2022-09-05T01:59:28.410Z,35.75
2022-09-05T02:00:12.752Z,32.92
2022-09-05T02:00:48.037Z,30.90
2022-09-05T02:01:38.941Z,34.97
2022-09-05T02:02:30.140Z,33.65
2022-09-05T02:03:02.845Z,36.33
2022-09-05T02:03:53.710Z,31.15
2022-09-05T02:04:41.721Z,30.55
2022-09-05T02:05:47.908Z,34.85
2022-09-05T02:06:36.232Z,34.15
2022-09-05T02:07:30.484Z,34.92
2022-09-05T02:08:10.218Z,30.63
2022-09-05T02:08:42.530Z,34.28
2022-09-05T02:09:31.034Z,31.65
2022-09-05T02:10:22.126Z,27.60
2022-09-05T02:11:06.587Z,34.05
2022-09-05T02:11:38.911Z,31.20
2022-09-05T02:12:26.350Z,32.42
2022-09-05T02:13:13.739Z,28.60
2022-09-05T02:13:58.959Z,28.20
2022-09-05T02:14:34.040Z,31.55
2022-09-05T02:15:10.219Z,27.33
2022-09-05T02:16:11.280Z,27.00
2022-09-05T02:16:47.138Z,30.88
2022-09-05T02:17:33.543Z,28.65
2022-09-05T02:18:15.896Z,27.83
2022-09-05T02:19:06.742Z,28.25
2022-09-05T02:19:48.910Z,30.20
2022-09-05T02:20:23.711Z,28.70
2022-09-05T02:20:59.016Z,27.90
2022-09-05T02:21:57.205Z,27.55
2022-09-05T02:22:40.430Z,30.63
2022-09-05T02:23:41.924Z,27.05
2022-09-05T02:24:27.350Z,28.35
2022-09-05T02:25:32.247Z,28.75
2022-09-05T02:26:10.250Z,28.45
2022-09-05T02:26:48.678Z,32.22
2022-09-05T02:28:03.918Z,27.95
2022-09-05T02:28:28.910Z,31.80
2022-09-05T02:29:29.710Z,28.33
2022-09-05T02:30:08.822Z,25.90
2022-09-05T02:30:58.964Z,27.73
2022-09-05T02:31:40.299Z,27.50
2022-09-05T02:32:15.143Z,33.03
2022-09-05T02:32:47.464Z,28.55
2022-09-05T02:33:38.459Z,28.58
2022-09-05T02:34:22.352Z,26.80
2022-09-05T02:34:58.286Z,22.83
2022-09-05T02:35:33.415Z,26.65
2022-09-05T02:36:09.302Z,23.65
2022-09-05T02:37:00.389Z,28.42
2022-09-05T02:39:51.923Z,27.25
2022-09-05T02:45:02.201Z,27.80
2022-09-05T02:45:03.449Z,26.40
2022-09-05T02:45:07.530Z,27.13
2022-09-05T02:45:11.151Z,22.42
2022-09-05T02:45:11.903Z,28.58
2022-09-05T02:45:11.903Z,24.05
2022-09-05T02:45:25.495Z,27.23
2022-09-05T02:45:58.903Z,22.45
2022-09-05T02:46:36.628Z,25.45
2022-09-05T02:47:22.732Z,26.00
2022-09-05T02:47:55.116Z,28.30
2022-09-05T02:48:30.084Z,26.88
2022-09-05T02:49:38.166Z,28.63
2022-09-05T02:52:21.205Z,26.75
2022-09-05T02:57:25.982Z,22.23
2022-09-05T02:57:29.755Z,23.80
2022-09-05T02:57:33.717Z,20.08
2022-09-05T02:57:35.415Z,19.70
2022-09-05T02:57:38.557Z,24.17
2022-09-05T02:57:42.872Z,25.77
2022-09-05T02:57:43.271Z,24.65
2022-09-05T02:58:17.203Z,24.13
2022-09-05T02:59:09.172Z,29.13
2022-09-05T02:59:48.039Z,24.27
2022-09-05T03:00:22.106Z,28.67
2022-09-05T03:01:01.653Z,26.90
2022-09-05T03:01:52.243Z,28.83
2022-09-05T03:02:27.605Z,28.55
2022-09-05T03:03:18.709Z,25.42
2022-09-05T03:04:11.307Z,25.25
2022-09-05T03:04:52.380Z,28.05
2022-09-05T03:05:37.848Z,25.90
2022-09-05T03:06:10.096Z,27.35
2022-09-05T03:06:42.548Z,24.60
2022-09-05T03:07:17.814Z,28.75
2022-09-05T03:08:01.450Z,25.15
2022-09-05T03:08:33.996Z,25.65
2022-09-05T03:09:35.799Z,30.42
2022-09-05T03:10:28.362Z,21.88
2022-09-05T03:11:27.150Z,25.85
2022-09-05T03:12:29.465Z,22.75
2022-09-05T03:13:20.672Z,24.50
2022-09-05T03:14:11.541Z,25.02
2022-09-05T03:15:01.878Z,22.58
2022-09-05T03:15:52.467Z,21.88
2022-09-05T03:16:47.010Z,25.00
2022-09-05T03:17:37.965Z,23.83
2022-09-05T03:18:20.872Z,22.42
2022-09-05T03:19:05.628Z,27.70
2022-09-05T03:19:46.729Z,21.33
2022-09-05T03:20:38.187Z,23.75
2022-09-05T03:21:30.862Z,23.38
2022-09-05T03:22:15.679Z,23.48
2022-09-05T03:22:51.727Z,24.52
2022-09-05T03:23:47.872Z,21.23
2022-09-05T03:24:35.917Z,23.55
2022-09-05T03:25:10.930Z,21.63
2022-09-05T03:25:45.937Z,25.73
2022-09-05T03:26:36.575Z,22.88
2022-09-05T03:27:22.263Z,20.98
2022-09-05T03:28:16.275Z,23.58
2022-09-05T03:28:51.677Z,21.60
2022-09-05T03:29:46.528Z,21.48
2022-09-05T03:30:22.414Z,21.08
2022-09-05T03:30:55.040Z,21.65
2022-09-05T03:31:27.492Z,22.00
2022-09-05T03:32:05.601Z,25.30
2022-09-05T03:32:42.097Z,22.70
2022-09-05T03:33:14.853Z,20.17
2022-09-05T03:34:22.464Z,21.65
2022-09-05T03:34:55.205Z,22.15
2022-09-05T03:35:31.086Z,20.23
2022-09-05T03:36:03.382Z,21.77
2022-09-05T03:36:54.410Z,22.45
2022-09-05T03:37:31.732Z,19.60
2022-09-05T03:38:07.295Z,22.88
2022-09-05T03:38:43.309Z,19.90
2022-09-05T03:40:15.235Z,20.20
2022-09-05T03:40:56.344Z,18.98
2022-09-05T03:41:55.597Z,19.50
2022-09-05T03:42:31.944Z,23.58
2022-09-05T03:43:04.331Z,19.33
2022-09-05T03:43:54.039Z,19.58
2022-09-05T03:44:26.369Z,19.52
2022-09-05T03:45:16.956Z,21.73
2022-09-05T03:46:59.836Z,19.45
2022-09-05T03:47:32.591Z,25.13
2022-09-05T03:48:27.586Z,21.35
2022-09-05T03:51:17.116Z,20.70
2022-09-05T03:54:57.047Z,19.20
2022-09-05T03:57:06.882Z,17.63
2022-09-05T03:57:10.997Z,19.17
2022-09-05T03:57:12.203Z,20.00
2022-09-05T03:57:15.711Z,19.48
2022-09-05T03:57:15.964Z,19.17
2022-09-05T03:57:20.406Z,18.52
2022-09-05T03:58:02.130Z,16.83
2022-09-05T03:59:04.760Z,15.35
2022-09-05T03:59:52.532Z,18.25
2022-09-05T04:00:30.567Z,16.25
2022-09-05T04:03:21.562Z,16.90
2022-09-05T04:05:10.938Z,17.95
2022-09-05T04:07:05.008Z,16.77
2022-09-05T04:08:07.949Z,14.43
2022-09-05T04:08:16.626Z,14.38
2022-09-05T04:08:18.932Z,15.65
2022-09-05T04:08:19.556Z,15.15
2022-09-05T04:08:20.798Z,17.38
2022-09-05T04:08:57.269Z,14.48
2022-09-05T04:09:50.609Z,15.95
2022-09-05T04:10:28.599Z,15.23
2022-09-05T04:11:10.484Z,15.68
2022-09-05T04:11:42.780Z,15.82
2022-09-05T04:12:18.879Z,15.70
2022-09-05T04:13:08.895Z,16.17
2022-09-05T04:13:47.463Z,17.17
2022-09-05T04:14:27.937Z,17.50
2022-09-05T04:15:06.718Z,16.20
2022-09-05T04:15:43.787Z,18.48
2022-09-05T04:16:18.619Z,17.52
2022-09-05T04:16:53.835Z,19.48
2022-09-05T04:17:31.362Z,17.38
2022-09-05T04:18:32.855Z,15.02
2022-09-05T04:19:12.336Z,16.98
2022-09-05T04:19:49.066Z,15.93
2022-09-05T04:20:30.936Z,14.75
2022-09-05T04:21:06.125Z,16.58
2022-09-05T04:21:48.649Z,18.42
2022-09-05T04:22:39.087Z,16.73
2022-09-05T04:23:11.424Z,15.38
2022-09-05T04:23:51.705Z,20.02
2022-09-05T04:24:42.271Z,15.23
2022-09-05T04:25:44.070Z,15.23
2022-09-05T04:26:27.644Z,17.13
2022-09-05T04:27:06.874Z,17.63
2022-09-05T04:28:14.212Z,16.35
2022-09-05T04:29:05.224Z,15.60
2022-09-05T04:29:43.041Z,15.73
2022-09-05T04:30:39.862Z,16.30
2022-09-05T04:31:19.706Z,15.13
2022-09-05T04:32:21.259Z,14.93
2022-09-05T04:33:05.559Z,18.13
2022-09-05T04:33:43.377Z,16.05
2022-09-05T04:34:33.617Z,16.73
2022-09-05T04:35:29.302Z,15.70
2022-09-05T04:36:19.778Z,15.30
2022-09-05T04:37:02.317Z,17.70
2022-09-05T04:37:47.729Z,16.60
2022-09-05T04:38:36.828Z,17.30
2022-09-05T04:39:24.405Z,16.90
2022-09-05T04:39:56.902Z,15.65
2022-09-05T04:40:34.677Z,19.08
2022-09-05T04:41:36.612Z,16.02
2022-09-05T04:42:23.070Z,16.45
2022-09-05T04:42:57.475Z,17.88
2022-09-05T04:43:32.796Z,17.50
2022-09-05T04:44:08.714Z,16.65
2022-09-05T04:44:47.306Z,18.17
2022-09-05T04:45:24.235Z,17.13
2022-09-05T04:46:05.903Z,17.95
2022-09-05T04:46:48.528Z,19.45
2022-09-05T04:47:23.940Z,20.48
2022-09-05T04:48:00.931Z,18.83
2022-09-05T04:48:37.446Z,23.40
2022-09-05T04:49:16.551Z,19.15
2022-09-05T04:49:56.454Z,19.38
2022-09-05T04:50:37.866Z,17.85
2022-09-05T04:51:43.944Z,19.20
2022-09-05T04:52:35.216Z,21.83
2022-09-05T04:53:29.972Z,22.45
2022-09-05T04:54:12.458Z,18.88
2022-09-05T04:54:54.029Z,19.38
2022-09-05T04:55:32.724Z,18.13
2022-09-05T04:56:09.672Z,20.13
2022-09-05T04:56:44.832Z,18.95
2022-09-05T04:57:20.805Z,17.40
2022-09-05T04:58:02.582Z,20.67
2022-09-05T04:59:51.320Z,16.60
2022-09-05T05:02:51.958Z,20.88
2022-09-05T05:06:00.055Z,20.60
2022-09-05T05:06:01.211Z,21.02
2022-09-05T05:06:08.550Z,17.48
2022-09-05T05:06:11.538Z,18.05
2022-09-05T05:06:12.395Z,19.33
2022-09-05T05:06:17.109Z,16.85
2022-09-05T05:07:10.362Z,15.48
2022-09-05T05:08:01.702Z,16.85
2022-09-05T05:08:41.034Z,15.75
2022-09-05T05:09:29.023Z,15.23
2022-09-05T05:10:25.550Z,16.30
2022-09-05T05:16:10.809Z,14.90
2022-09-05T05:17:54.511Z,14.10
2022-09-05T05:18:03.860Z,15.07
2022-09-05T05:18:06.250Z,15.40
2022-09-05T05:18:06.384Z,14.95
2022-09-05T05:18:12.650Z,16.35
2022-09-05T05:18:15.786Z,14.48
2022-09-05T05:18:39.701Z,14.13
2022-09-05T05:19:40.897Z,16.10
2022-09-05T05:20:47.893Z,14.55
2022-09-05T05:21:21.549Z,14.75
2022-09-05T05:21:55.806Z,11.85
2022-09-05T05:22:28.429Z,14.93
2022-09-05T05:23:07.786Z,15.57
2022-09-05T05:23:40.520Z,14.90
2022-09-05T05:24:17.473Z,15.52
2022-09-05T05:24:56.570Z,14.52
2022-09-05T05:25:31.396Z,15.68
2022-09-05T05:26:06.603Z,15.65
2022-09-05T05:26:45.065Z,14.77
2022-09-05T05:27:23.880Z,17.42
2022-09-05T05:28:24.798Z,15.15
2022-09-05T05:29:01.780Z,17.05
2022-09-05T05:29:46.896Z,18.75
2022-09-05T05:30:27.754Z,15.18
2022-09-05T05:31:09.956Z,17.15
2022-09-05T05:32:08.270Z,15.02
2022-09-05T05:32:45.793Z,13.77
2022-09-05T05:33:29.070Z,15.82
2022-09-05T05:34:11.919Z,13.80
2022-09-05T05:34:58.211Z,16.23
2022-09-05T05:35:32.285Z,15.05
2022-09-05T05:36:07.684Z,14.75
2022-09-05T05:36:46.122Z,13.80
2022-09-05T05:37:21.531Z,13.45
2022-09-05T05:38:08.391Z,15.02
2022-09-05T05:39:00.688Z,16.08
2022-09-05T05:39:33.789Z,16.80
2022-09-05T05:40:08.914Z,18.05
2022-09-05T05:40:50.854Z,16.23
2022-09-05T05:41:43.624Z,16.38
2022-09-05T05:42:20.605Z,16.75
2022-09-05T05:42:54.008Z,13.32
2022-09-05T05:43:28.146Z,14.60
2022-09-05T05:44:09.502Z,14.75
2022-09-05T05:44:47.777Z,15.55
2022-09-05T05:45:25.931Z,18.67
2022-09-05T05:46:01.284Z,15.43
2022-09-05T05:46:35.760Z,16.13
2022-09-05T05:47:31.913Z,14.15
2022-09-05T05:48:06.354Z,15.73
2022-09-05T05:48:47.000Z,15.73
2022-09-05T05:49:48.658Z,14.27
2022-09-05T05:50:33.704Z,14.25
2022-09-05T05:51:38.340Z,14.70
2022-09-05T05:52:23.056Z,13.52
2022-09-05T05:52:55.335Z,13.52
2022-09-05T05:53:43.215Z,13.40
2022-09-05T05:54:32.586Z,14.85
2022-09-05T05:55:50.715Z,13.30
2022-09-05T05:56:24.570Z,17.40
2022-09-05T05:57:12.516Z,15.13
2022-09-05T05:58:13.405Z,15.05
2022-09-05T05:59:08.797Z,18.23
2022-09-05T05:59:56.419Z,13.65
2022-09-05T06:00:52.063Z,12.27
2022-09-05T06:01:37.725Z,11.98
2022-09-05T06:02:17.211Z,15.20
2022-09-05T06:03:01.862Z,14.63
2022-09-05T06:03:50.685Z,13.25
2022-09-05T06:04:45.171Z,15.20
2022-09-05T06:05:24.018Z,11.60
2022-09-05T06:06:08.566Z,15.95
2022-09-05T06:07:02.405Z,14.80
2022-09-05T06:09:12.738Z,15.00
2022-09-05T06:14:48.778Z,13.68
2022-09-05T06:14:49.841Z,15.38
2022-09-05T06:14:50.623Z,14.13
2022-09-05T06:15:01.765Z,14.35
2022-09-05T06:15:06.636Z,18.55
2022-09-05T06:15:08.853Z,12.77
2022-09-05T06:15:15.205Z,13.65
2022-09-05T06:16:09.151Z,13.63
2022-09-05T06:17:07.877Z,14.02
2022-09-05T06:18:00.394Z,14.50
2022-09-05T06:18:45.690Z,18.98
2022-09-05T06:20:03.339Z,13.43
2022-09-05T06:22:04.632Z,18.08
2022-09-05T06:22:11.590Z,16.35
2022-09-05T06:22:46.608Z,16.50
2022-09-05T06:23:39.553Z,18.67
2022-09-05T06:24:15.818Z,16.98
2022-09-05T06:25:16.311Z,19.90
2022-09-05T06:25:58.372Z,18.08
2022-09-05T06:26:51.204Z,19.85
2022-09-05T06:27:35.410Z,18.60
2022-09-05T06:28:19.610Z,18.15
2022-09-05T06:29:10.564Z,16.10
2022-09-05T06:30:01.031Z,15.00
2022-09-05T06:31:02.081Z,16.38
2022-09-05T06:31:55.662Z,15.82
2022-09-05T06:32:50.189Z,13.52
2022-09-05T06:33:50.074Z,15.52
2022-09-05T06:34:33.417Z,17.50
2022-09-05T06:35:08.039Z,17.67
2022-09-05T06:35:59.894Z,20.15
2022-09-05T06:36:58.462Z,16.92
2022-09-05T06:37:49.684Z,17.70
2022-09-05T06:38:24.732Z,18.95
2022-09-05T06:38:58.640Z,22.25
2022-09-05T06:39:57.456Z,17.38
2022-09-05T06:40:48.117Z,16.30
2022-09-05T06:41:29.645Z,12.85
2022-09-05T06:42:42.605Z,19.10
2022-09-05T06:43:16.133Z,12.60
2022-09-05T06:43:57.282Z,14.20
2022-09-05T06:44:40.478Z,14.90
2022-09-05T06:45:27.653Z,16.63
2022-09-05T06:46:01.307Z,12.77
2022-09-05T06:46:54.602Z,14.65
2022-09-05T06:47:33.464Z,14.90
2022-09-05T06:48:14.553Z,11.82
2022-09-05T06:49:29.861Z,14.18
2022-09-05T06:50:27.146Z,12.27
2022-09-05T06:51:08.345Z,13.98
2022-09-05T06:51:50.265Z,14.15
2022-09-05T06:53:13.937Z,12.82
2022-09-05T06:53:59.677Z,14.18
2022-09-05T06:54:41.421Z,14.30
2022-09-05T06:55:31.931Z,12.65
2022-09-05T06:56:05.371Z,13.77
2022-09-05T06:56:56.753Z,14.40
2022-09-05T06:57:32.012Z,13.60
2022-09-05T06:58:07.248Z,18.20
2022-09-05T06:58:42.668Z,14.10
2022-09-05T06:59:35.993Z,12.77
2022-09-05T07:00:26.505Z,12.52
2022-09-05T07:01:00.585Z,14.77
2022-09-05T07:01:44.732Z,12.13
2022-09-05T07:03:06.671Z,14.15
2022-09-05T07:03:52.197Z,16.52
2022-09-05T07:04:53.619Z,13.23
2022-09-05T07:05:38.793Z,13.98
2022-09-05T07:06:50.750Z,17.77
2022-09-05T07:07:45.996Z,12.43
2022-09-05T07:08:34.827Z,11.52
2022-09-05T07:09:09.091Z,11.90
2022-09-05T07:09:54.135Z,14.13
2022-09-05T07:10:45.474Z,14.52
2022-09-05T07:11:17.827Z,11.63
2022-09-05T07:11:52.939Z,13.65
2022-09-05T07:12:30.750Z,15.05
2022-09-05T07:13:15.474Z,14.10
2022-09-05T07:13:50.862Z,12.18
2022-09-05T07:14:25.934Z,14.40
2022-09-05T07:15:16.924Z,11.77
2022-09-05T07:15:55.905Z,12.30
2022-09-05T07:16:37.728Z,12.32
2022-09-05T07:17:14.697Z,13.23
2022-09-05T07:18:10.839Z,12.32
2022-09-05T07:19:01.276Z,13.88
2022-09-05T07:19:39.523Z,11.80
2022-09-05T07:20:22.093Z,11.48
2022-09-05T07:21:16.427Z,12.20
2022-09-05T07:22:29.373Z,12.43
2022-09-05T07:23:57.749Z,12.05
2022-09-05T07:24:53.641Z,11.57
2022-09-05T07:25:18.413Z,10.18
2022-09-05T07:25:52.321Z,12.73
2022-09-05T07:26:52.331Z,11.57
2022-09-05T07:28:26.314Z,12.23
2022-09-05T07:28:44.992Z,10.07
2022-09-05T07:29:24.153Z,13.82
2022-09-05T07:30:01.991Z,11.95
2022-09-05T07:30:35.550Z,10.95
2022-09-05T07:31:10.736Z,10.43
2022-09-05T07:31:46.030Z,10.02
2022-09-05T07:32:23.736Z,11.73
2022-09-05T07:32:58.290Z,13.35
2022-09-05T07:33:31.464Z,10.50
2022-09-05T07:34:20.928Z,11.52
2022-09-05T07:34:54.476Z,11.57
2022-09-05T07:35:29.530Z,12.07
2022-09-05T07:36:08.659Z,12.88
2022-09-05T07:36:46.922Z,14.55
2022-09-05T07:37:22.366Z,13.57
2022-09-05T07:38:04.427Z,12.02
2022-09-05T07:38:52.498Z,12.75
2022-09-05T07:39:30.987Z,10.65
2022-09-05T07:40:25.452Z,12.65
2022-09-05T07:41:04.105Z,11.63
2022-09-05T07:41:39.737Z,13.25
2022-09-05T07:42:17.006Z,13.40
2022-09-05T07:43:08.308Z,11.90
2022-09-05T07:43:44.321Z,13.45
2022-09-05T07:44:22.417Z,11.68
2022-09-05T07:44:57.106Z,14.95
2022-09-05T07:45:30.174Z,12.70
2022-09-05T07:46:07.072Z,13.30
2022-09-05T07:46:40.551Z,11.50
2022-09-05T07:47:15.446Z,10.65
2022-09-05T07:47:54.166Z,14.90
2022-09-05T07:48:34.796Z,12.43
2022-09-05T07:49:12.349Z,11.75
2022-09-05T07:50:07.789Z,13.90
2022-09-05T07:56:31.983Z,12.95
2022-09-05T07:56:54.486Z,15.48
2022-09-05T07:56:55.662Z,11.35
2022-09-05T07:57:02.078Z,12.15
2022-09-05T07:57:08.835Z,11.95
2022-09-05T07:57:09.779Z,15.45
2022-09-05T07:57:26.974Z,16.00
2022-09-05T07:57:50.933Z,11.60
2022-09-05T07:58:34.195Z,12.00
2022-09-05T07:59:08.655Z,16.92
2022-09-05T07:59:41.826Z,13.35
2022-09-05T08:00:26.086Z,13.40
2022-09-05T08:01:00.308Z,13.88
2022-09-05T08:01:32.996Z,12.43
2022-09-05T08:02:13.180Z,14.55
2022-09-05T08:02:54.113Z,12.70
2022-09-05T08:03:29.383Z,13.75
2022-09-05T08:04:05.683Z,12.35
2022-09-05T08:04:40.044Z,12.95
2022-09-05T08:05:16.390Z,15.85
2022-09-05T08:05:58.250Z,12.77
2022-09-05T08:07:11.943Z,12.85
2022-09-05T08:07:49.541Z,14.13
2022-09-05T08:08:20.811Z,11.80
2022-09-05T08:09:21.913Z,12.95
2022-09-05T08:10:08.518Z,15.50
2022-09-05T08:11:22.188Z,11.98
2022-09-05T08:11:41.567Z,12.93
2022-09-05T08:12:28.033Z,12.88
2022-09-05T08:14:43.314Z,12.43
2022-09-05T08:14:59.028Z,16.08
2022-09-05T08:16:10.592Z,12.52
2022-09-05T08:16:25.150Z,15.38
2022-09-05T08:16:58.042Z,15.57
2022-09-05T08:17:31.197Z,14.07
2022-09-05T08:18:12.725Z,16.10
2022-09-05T08:18:51.484Z,14.15
2022-09-05T08:19:29.898Z,14.30
2022-09-05T08:20:08.996Z,14.27
2022-09-05T08:20:42.582Z,13.13
2022-09-05T08:21:27.661Z,14.65
2022-09-05T08:22:01.423Z,12.02
2022-09-05T08:22:49.555Z,12.50
2022-09-05T08:23:43.393Z,12.65
2022-09-05T08:24:15.711Z,13.23
2022-09-05T08:24:55.354Z,12.52
2022-09-05T08:25:42.158Z,13.35
2022-09-05T08:26:38.962Z,12.50
2022-09-05T08:27:19.216Z,14.85
2022-09-05T08:28:14.351Z,14.25
2022-09-05T08:28:51.446Z,14.77
2022-09-05T08:29:32.606Z,14.30
2022-09-05T08:30:26.113Z,14.88
2022-09-05T08:31:04.358Z,11.52
2022-09-05T08:31:55.763Z,13.07
2022-09-05T08:32:35.227Z,15.68
2022-09-05T08:33:11.896Z,16.02
2022-09-05T08:33:45.164Z,12.75
2022-09-05T08:34:21.638Z,13.38
2022-09-05T08:35:17.046Z,13.88
2022-09-05T08:36:00.840Z,16.95
2022-09-05T08:36:36.678Z,13.63
2022-09-05T08:37:12.486Z,12.40
2022-09-05T08:37:48.593Z,12.57
2022-09-05T08:38:21.726Z,12.50
2022-09-05T08:38:54.482Z,12.73
2022-09-05T08:39:29.661Z,12.30
2022-09-05T08:40:11.558Z,13.35
2022-09-05T08:40:55.185Z,14.98
2022-09-05T08:41:43.074Z,12.18
2022-09-05T08:42:31.068Z,10.80
2022-09-05T08:43:54.631Z,9.95
2022-09-05T08:46:40.131Z,10.65
2022-09-05T08:46:41.198Z,14.30
2022-09-05T08:46:43.162Z,11.98
2022-09-05T08:47:22.327Z,11.65
2022-09-05T08:47:58.340Z,10.98
2022-09-05T08:48:30.746Z,13.40
2022-09-05T08:49:23.943Z,11.77
2022-09-05T08:50:37.088Z,13.07
2022-09-05T08:51:09.902Z,10.90
2022-09-05T08:52:05.304Z,10.52
2022-09-05T08:52:37.589Z,11.18
2022-09-05T08:53:28.435Z,12.20
2022-09-05T08:54:30.289Z,14.10
2022-09-05T08:55:20.963Z,9.73
2022-09-05T08:56:04.282Z,11.23
2022-09-05T08:56:51.753Z,9.73
2022-09-05T08:57:26.765Z,15.02
2022-09-05T08:57:59.097Z,10.18
2022-09-05T08:58:34.869Z,10.75
2022-09-05T08:59:27.835Z,10.00
2022-09-05T09:00:19.570Z,10.38
2022-09-05T09:01:00.355Z,13.13
2022-09-05T09:01:59.306Z,9.63
2022-09-05T09:02:47.304Z,13.57
2022-09-05T09:03:25.714Z,10.00
2022-09-05T09:04:04.678Z,11.27
2022-09-05T09:05:02.381Z,8.60
2022-09-05T09:06:12.359Z,9.32
2022-09-05T09:06:36.658Z,10.40
2022-09-05T09:07:47.107Z,9.90
2022-09-05T09:08:04.222Z,10.82
2022-09-05T09:08:49.297Z,10.88
2022-09-05T09:09:45.671Z,10.32
2022-09-05T09:10:36.531Z,12.13
2022-09-05T09:11:19.463Z,12.48
2022-09-05T09:11:54.414Z,9.85
2022-09-05T09:12:36.009Z,9.00
2022-09-05T09:13:11.117Z,8.15
2022-09-05T09:13:54.363Z,11.13
2022-09-05T09:14:30.959Z,13.68
2022-09-05T09:15:19.460Z,10.95
2022-09-05T09:15:51.840Z,9.05
2022-09-05T09:16:37.150Z,9.57
2022-09-05T09:17:12.429Z,11.18
2022-09-05T09:17:45.764Z,12.65
2022-09-05T09:18:19.523Z,9.15
2022-09-05T09:18:51.848Z,9.20
2022-09-05T09:19:50.030Z,11.65
2022-09-05T09:20:29.089Z,10.65
2022-09-05T09:21:21.257Z,13.98
2022-09-05T09:21:53.554Z,9.73
2022-09-05T09:22:46.867Z,8.68
2022-09-05T09:23:31.745Z,9.10
2022-09-05T09:24:14.342Z,9.52
2022-09-05T09:25:15.012Z,11.27
2022-09-05T09:25:51.495Z,10.75
2022-09-05T09:26:28.557Z,10.18
2022-09-05T09:27:03.726Z,8.60
2022-09-05T09:28:33.606Z,9.85
2022-09-05T09:28:57.150Z,10.20
2022-09-05T09:29:34.525Z,9.00
2022-09-05T09:30:07.385Z,10.38
2022-09-05T09:30:41.980Z,9.48
2022-09-05T09:31:33.173Z,9.95
2022-09-05T09:32:09.575Z,7.90
2022-09-05T09:32:45.781Z,11.10
2022-09-05T09:33:27.130Z,8.02
2022-09-05T09:34:05.967Z,9.40
2022-09-05T09:34:49.292Z,9.13
2022-09-05T09:36:09.294Z,8.40
2022-09-05T09:37:11.346Z,11.02
2022-09-05T09:37:51.939Z,8.18
2022-09-05T09:38:41.279Z,11.02
2022-09-05T09:39:38.916Z,9.40
2022-09-05T09:40:20.871Z,8.30
2022-09-05T09:41:17.596Z,7.97
2022-09-05T09:41:55.791Z,7.07
2022-09-05T09:42:33.478Z,9.93
2022-09-05T09:43:21.785Z,9.48
2022-09-05T09:43:54.219Z,11.45
2022-09-05T09:44:46.686Z,11.77
2022-09-05T09:45:39.071Z,7.40
2022-09-05T09:46:50.998Z,10.68
2022-09-05T09:47:31.858Z,10.32
2022-09-05T09:48:07.089Z,7.50
2022-09-05T09:48:42.188Z,9.05
2022-09-05T09:49:32.722Z,8.95
2022-09-05T09:50:10.978Z,7.35
2022-09-05T09:51:03.926Z,8.82
2022-09-05T09:51:36.351Z,7.88
2022-09-05T09:52:09.066Z,7.82
2022-09-05T09:52:59.772Z,8.65
2022-09-05T09:53:50.859Z,10.68
2022-09-05T09:54:41.639Z,9.02
2022-09-05T09:55:39.280Z,9.07
2022-09-05T09:56:11.751Z,8.68
2022-09-05T09:57:02.376Z,7.72
2022-09-05T09:57:37.828Z,9.90
2022-09-05T09:58:12.950Z,8.10